createdAt,value
2022-08-16T00:02:31.211Z,21.70
2022-08-16T00:05:00.120Z,21.70
2022-08-16T00:07:29.199Z,21.70
2022-08-16T00:09:58.715Z,21.70
2022-08-16T00:12:28.342Z,21.70
2022-08-16T00:14:56.591Z,21.70
2022-08-16T00:17:25.002Z,21.60
2022-08-16T00:19:53.424Z,21.70
2022-08-16T00:22:24.660Z,21.60
2022-08-16T00:24:53.570Z,21.60
2022-08-16T00:27:22.474Z,21.60
2022-08-16T00:30:00.862Z,21.70
2022-08-16T00:32:38.409Z,21.60
2022-08-16T00:35:15.020Z,21.60
2022-08-16T00:37:57.311Z,21.50
2022-08-16T00:40:43.584Z,21.50
2022-08-16T00:43:25.975Z,21.50
2022-08-16T00:46:22.356Z,21.40
2022-08-16T00:49:01.086Z,21.40
2022-08-16T00:51:29.844Z,21.40
2022-08-16T00:53:58.617Z,21.40
2022-08-16T00:56:56.843Z,21.40
2022-08-16T00:59:20.990Z,21.30
2022-08-16T01:01:52.167Z,21.40
2022-08-16T01:04:29.149Z,21.40
2022-08-16T01:07:01.902Z,21.50
2022-08-16T01:09:34.157Z,21.50
2022-08-16T01:12:03.554Z,21.40
2022-08-16T01:14:37.848Z,21.40
2022-08-16T01:17:08.396Z,21.40
2022-08-16T01:19:49.911Z,21.30
2022-08-16T01:22:49.715Z,21.20
2022-08-16T01:25:33.733Z,21.30
2022-08-16T01:28:04.679Z,21.20
2022-08-16T01:30:39.884Z,21.20
2022-08-16T01:33:16.948Z,21.30
2022-08-16T01:35:56.297Z,21.30
2022-08-16T01:38:25.929Z,21.00
2022-08-16T01:41:01.847Z,21.10
2022-08-16T01:43:31.115Z,21.10
2022-08-16T01:46:29.875Z,21.10
2022-08-16T01:48:53.407Z,21.00
2022-08-16T01:51:23.931Z,21.10
2022-08-16T01:53:54.647Z,21.00
2022-08-16T01:56:25.216Z,20.90
2022-08-16T01:58:55.109Z,21.00
2022-08-16T02:01:23.034Z,20.90
2022-08-16T02:03:53.172Z,20.90
2022-08-16T02:06:34.824Z,20.80
2022-08-16T02:09:12.031Z,20.80
2022-08-16T02:11:48.778Z,20.70
2022-08-16T02:14:22.437Z,20.50
2022-08-16T02:16:53.773Z,20.50
2022-08-16T02:19:21.525Z,20.50
2022-08-16T02:22:08.360Z,20.40
2022-08-16T02:24:42.571Z,20.30
2022-08-16T02:27:13.653Z,20.30
2022-08-16T02:29:42.772Z,20.40
2022-08-16T02:32:51.207Z,20.30
2022-08-16T02:34:59.616Z,20.10
2022-08-16T02:37:39.751Z,20.20
2022-08-16T02:40:19.387Z,20.10
2022-08-16T02:42:50.025Z,20.30
2022-08-16T02:45:24.905Z,20.10
2022-08-16T02:48:01.087Z,20.30
2022-08-16T02:50:54.452Z,20.40
2022-08-16T02:53:29.875Z,20.20
2022-08-16T02:55:56.839Z,20.20
2022-08-16T02:58:25.170Z,20.20
2022-08-16T03:00:56.155Z,20.30
2022-08-16T03:03:25.084Z,20.30
2022-08-16T03:05:53.131Z,20.10
2022-08-16T03:08:50.762Z,20.20
2022-08-16T03:11:16.259Z,20.30
2022-08-16T03:13:51.180Z,20.20
2022-08-16T03:16:37.792Z,20.20
2022-08-16T03:19:06.411Z,20.10
2022-08-16T03:21:37.747Z,20.10
2022-08-16T03:24:06.484Z,20.00
2022-08-16T03:26:53.443Z,19.90
2022-08-16T03:29:27.307Z,20.00
2022-08-16T03:31:59.209Z,19.90
2022-08-16T03:34:26.822Z,19.90
2022-08-16T03:36:54.018Z,20.00
2022-08-16T03:39:20.964Z,20.00
2022-08-16T03:41:50.215Z,20.10
2022-08-16T03:44:43.838Z,20.00
2022-08-16T03:47:10.039Z,20.20
2022-08-16T03:49:37.649Z,19.90
2022-08-16T03:52:06.207Z,19.60
2022-08-16T03:54:35.790Z,19.70
2022-08-16T03:57:04.936Z,19.80
2022-08-16T03:59:32.495Z,19.90
2022-08-16T04:02:01.725Z,19.90
2022-08-16T04:04:33.292Z,20.10
2022-08-16T04:07:02.851Z,20.00
2022-08-16T04:09:35.463Z,20.00
2022-08-16T04:12:11.184Z,20.10
2022-08-16T04:14:51.947Z,20.00
2022-08-16T04:17:18.812Z,20.00
2022-08-16T04:19:46.728Z,20.00
2022-08-16T04:22:17.397Z,19.90
2022-08-16T04:24:54.233Z,19.90
2022-08-16T04:27:24.353Z,20.00
2022-08-16T04:29:52.198Z,20.00
2022-08-16T04:32:20.016Z,20.00
2022-08-16T04:34:47.197Z,20.10
2022-08-16T04:37:14.308Z,20.20
2022-08-16T04:39:46.798Z,20.10
2022-08-16T04:42:17.778Z,20.10
2022-08-16T04:44:53.815Z,20.10
2022-08-16T04:47:31.715Z,20.10
2022-08-16T04:50:06.871Z,20.10
2022-08-16T04:52:36.060Z,20.10
2022-08-16T04:55:11.830Z,20.00
2022-08-16T04:57:41.391Z,19.90
2022-08-16T05:00:30.376Z,19.70
2022-08-16T05:03:07.496Z,19.60
2022-08-16T05:05:45.108Z,19.60
2022-08-16T05:08:29.937Z,19.60
2022-08-16T05:11:06.026Z,19.60
2022-08-16T05:13:40.462Z,19.40
2022-08-16T05:16:12.021Z,19.50
2022-08-16T05:18:47.144Z,19.40
2022-08-16T05:21:13.945Z,19.70
2022-08-16T05:23:40.836Z,19.80
2022-08-16T05:26:19.545Z,19.60
2022-08-16T05:28:48.074Z,19.70
2022-08-16T05:31:29.569Z,19.60
2022-08-16T05:34:03.651Z,19.80
2022-08-16T05:36:34.057Z,19.70
2022-08-16T05:39:04.751Z,19.70
2022-08-16T05:41:31.538Z,19.80
2022-08-16T05:44:00.362Z,19.60
2022-08-16T05:46:32.788Z,19.80
2022-08-16T05:49:09.018Z,19.90
2022-08-16T05:51:39.105Z,19.80
2022-08-16T05:54:08.026Z,19.70
2022-08-16T05:56:37.753Z,19.80
2022-08-16T05:59:06.402Z,19.80
2022-08-16T06:01:38.221Z,20.00
2022-08-16T06:04:13.531Z,20.00
2022-08-16T06:06:57.781Z,19.90
2022-08-16T06:09:43.324Z,20.00
2022-08-16T06:12:27.430Z,20.30
2022-08-16T06:14:59.187Z,20.30
2022-08-16T06:17:41.651Z,20.30
2022-08-16T06:20:24.173Z,20.30
2022-08-16T06:22:59.089Z,20.40
2022-08-16T06:25:35.845Z,20.50
2022-08-16T06:28:08.609Z,20.40
2022-08-16T06:30:44.063Z,20.60
2022-08-16T06:33:22.196Z,20.80
2022-08-16T06:35:50.767Z,20.70
2022-08-16T06:38:33.429Z,20.70
2022-08-16T06:41:03.840Z,20.70
2022-08-16T06:43:32.197Z,20.60
2022-08-16T06:45:59.587Z,20.70
2022-08-16T06:48:32.760Z,20.70
2022-08-16T06:51:01.934Z,20.90
2022-08-16T06:53:29.702Z,21.00
2022-08-16T06:55:58.648Z,21.20
2022-08-16T06:58:31.860Z,21.40
2022-08-16T07:01:02.592Z,21.50
2022-08-16T07:03:32.612Z,21.40
2022-08-16T07:05:59.856Z,21.60
2022-08-16T07:08:28.223Z,21.90
2022-08-16T07:10:56.490Z,22.20
2022-08-16T07:13:54.723Z,22.20
2022-08-16T07:16:17.016Z,22.20
2022-08-16T07:18:59.156Z,22.10
2022-08-16T07:21:45.999Z,22.20
2022-08-16T07:24:30.745Z,22.30
2022-08-16T07:26:59.071Z,22.50
2022-08-16T07:29:31.860Z,22.80
2022-08-16T07:32:00.555Z,22.70
2022-08-16T07:34:35.825Z,22.80
2022-08-16T07:37:09.738Z,22.70
2022-08-16T07:39:37.570Z,22.70
2022-08-16T07:42:28.189Z,23.10
2022-08-16T07:44:58.464Z,23.30
2022-08-16T07:47:31.445Z,23.30
2022-08-16T07:50:07.475Z,23.60
2022-08-16T07:52:34.966Z,23.50
2022-08-16T07:55:06.749Z,23.60
2022-08-16T07:57:37.956Z,23.40
2022-08-16T08:00:18.402Z,23.50
2022-08-16T08:02:47.718Z,23.50
2022-08-16T08:05:25.429Z,23.60
2022-08-16T08:08:11.529Z,23.50
2022-08-16T08:10:39.030Z,23.50
2022-08-16T08:13:06.038Z,23.50
2022-08-16T08:15:37.041Z,23.50
2022-08-16T08:18:29.991Z,23.70
2022-08-16T08:20:58.893Z,23.90
2022-08-16T08:23:25.966Z,24.00
2022-08-16T08:25:54.873Z,24.10
2022-08-16T08:28:22.583Z,24.40
2022-08-16T08:31:01.533Z,24.30
2022-08-16T08:33:31.866Z,24.30
2022-08-16T08:36:05.179Z,24.40
2022-08-16T08:38:44.984Z,24.60
2022-08-16T08:41:15.459Z,24.70
2022-08-16T08:43:47.113Z,24.90
2022-08-16T08:46:21.492Z,24.80
2022-08-16T08:48:59.486Z,25.00
2022-08-16T08:51:31.865Z,25.00
2022-08-16T08:54:06.871Z,24.80
2022-08-16T08:56:37.839Z,24.90
2022-08-16T08:59:19.857Z,25.00
2022-08-16T09:01:57.665Z,25.20
2022-08-16T09:04:26.762Z,25.40
2022-08-16T09:06:54.708Z,25.50
2022-08-16T09:09:22.763Z,25.30
2022-08-16T09:12:03.967Z,25.30
2022-08-16T09:14:34.524Z,25.30
2022-08-16T09:17:11.904Z,25.50
2022-08-16T09:19:52.633Z,25.70
2022-08-16T09:22:28.144Z,26.10
2022-08-16T09:25:10.032Z,26.50
2022-08-16T09:27:56.799Z,26.60
2022-08-16T09:30:34.082Z,26.50
2022-08-16T09:33:06.511Z,26.30
2022-08-16T09:35:36.630Z,26.40
2022-08-16T09:38:05.528Z,26.70
2022-08-16T09:40:43.276Z,26.80
2022-08-16T09:43:57.921Z,26.70
2022-08-16T09:46:33.497Z,26.80
2022-08-16T09:48:56.430Z,27.20
2022-08-16T09:51:30.606Z,26.90
2022-08-16T09:54:03.701Z,27.00
2022-08-16T09:56:35.373Z,27.10
2022-08-16T09:59:07.905Z,26.80
2022-08-16T10:01:37.040Z,27.40
2022-08-16T10:04:28.915Z,27.60
2022-08-16T10:09:25.650Z,27.10
2022-08-16T10:12:31.190Z,27.40
2022-08-16T10:14:57.935Z,27.20
2022-08-16T10:17:25.244Z,27.10
2022-08-16T10:19:55.356Z,27.00
2022-08-16T10:22:23.352Z,27.20
2022-08-16T10:24:56.074Z,27.20
2022-08-16T10:27:29.774Z,27.40
2022-08-16T10:30:26.283Z,27.30
2022-08-16T10:32:57.186Z,27.30
2022-08-16T10:35:32.654Z,27.40
2022-08-16T10:38:00.164Z,27.50
2022-08-16T10:40:29.432Z,27.30
2022-08-16T10:43:00.546Z,27.60
2022-08-16T10:45:36.658Z,27.60
2022-08-16T10:48:27.514Z,27.60
2022-08-16T10:50:58.731Z,27.60
2022-08-16T10:53:33.182Z,27.30
2022-08-16T10:56:55.951Z,27.20
2022-08-16T10:59:32.377Z,27.20
2022-08-16T11:02:21.831Z,27.30
2022-08-16T11:12:54.246Z,27.90
2022-08-16T11:15:21.829Z,28.30
2022-08-16T11:18:48.753Z,28.90
2022-08-16T11:20:48.678Z,28.80
2022-08-16T11:23:16.801Z,29.00
2022-08-16T11:31:18.130Z,29.30
2022-08-16T11:33:52.792Z,29.90
2022-08-16T11:36:27.835Z,29.70
2022-08-16T11:39:00.172Z,30.00
2022-08-16T11:41:29.431Z,30.10
2022-08-16T11:43:59.582Z,30.10
2022-08-16T11:46:43.639Z,30.20
2022-08-16T11:49:14.332Z,30.50
2022-08-16T11:51:46.007Z,30.20
2022-08-16T11:54:20.667Z,30.00
2022-08-16T11:56:57.311Z,29.30
2022-08-16T11:59:28.633Z,28.70
2022-08-16T12:01:59.511Z,28.30
2022-08-16T12:04:27.981Z,28.30
2022-08-16T12:06:54.965Z,28.10
2022-08-16T12:09:24.062Z,28.00
2022-08-16T12:11:52.776Z,27.90
2022-08-16T12:14:22.641Z,28.00
2022-08-16T12:16:55.627Z,27.90
2022-08-16T12:19:35.507Z,28.00
2022-08-16T12:22:05.872Z,28.10
2022-08-16T12:24:52.181Z,28.50
2022-08-16T12:27:23.196Z,29.00
2022-08-16T12:29:53.987Z,29.30
2022-08-16T12:32:38.405Z,29.50
2022-08-16T12:35:12.180Z,30.00
2022-08-16T12:37:39.878Z,29.70
2022-08-16T12:40:24.128Z,29.70
2022-08-16T12:42:58.518Z,30.40
2022-08-16T12:45:35.627Z,30.10
2022-08-16T12:48:39.406Z,30.10
2022-08-16T12:51:19.922Z,30.50
2022-08-16T12:53:51.806Z,30.80
2022-08-16T12:56:20.774Z,31.20
2022-08-16T12:58:51.871Z,31.00
2022-08-16T13:01:26.863Z,31.20
2022-08-16T13:04:11.969Z,31.70
2022-08-16T13:06:43.176Z,32.70
2022-08-16T13:09:20.745Z,33.40
2022-08-16T13:12:03.481Z,31.90
2022-08-16T13:14:37.959Z,32.00
2022-08-16T13:17:08.990Z,32.00
2022-08-16T13:20:06.738Z,32.30
2022-08-16T13:22:25.184Z,32.40
2022-08-16T13:24:54.416Z,32.40
2022-08-16T13:28:02.950Z,31.90
2022-08-16T13:30:22.138Z,31.70
2022-08-16T13:32:57.062Z,32.00
2022-08-16T13:35:25.572Z,32.10
2022-08-16T13:37:52.424Z,31.50
2022-08-16T13:40:21.249Z,31.30
2022-08-16T13:42:49.675Z,31.50
2022-08-16T13:45:17.432Z,31.40
2022-08-16T13:47:46.244Z,31.20
2022-08-16T13:50:14.340Z,31.50
2022-08-16T13:52:42.497Z,32.10
2022-08-16T13:55:17.603Z,33.10
2022-08-16T13:58:35.167Z,32.00
2022-08-16T14:00:32.016Z,31.70
2022-08-16T14:02:59.160Z,32.00
2022-08-16T14:05:27.336Z,31.40
2022-08-16T14:07:54.179Z,31.00
2022-08-16T14:10:21.427Z,30.50
2022-08-16T14:12:48.277Z,30.60
2022-08-16T14:15:16.100Z,30.70
2022-08-16T14:18:15.673Z,30.50
2022-08-16T14:20:30.225Z,30.60
2022-08-16T14:22:57.099Z,30.20
2022-08-16T14:25:25.401Z,30.10
2022-08-16T14:27:54.420Z,30.10
2022-08-16T14:30:22.651Z,30.00
2022-08-16T14:32:51.370Z,30.20
2022-08-16T14:35:48.622Z,30.10
2022-08-16T14:38:18.896Z,30.00
2022-08-16T14:40:52.788Z,29.60
2022-08-16T14:43:23.777Z,29.40
2022-08-16T14:45:50.866Z,29.60
2022-08-16T14:48:25.886Z,29.30
2022-08-16T14:50:53.839Z,29.50
2022-08-16T14:53:20.856Z,29.40
2022-08-16T14:55:48.498Z,29.50
2022-08-16T14:58:19.486Z,29.50
2022-08-16T15:00:50.345Z,29.50
2022-08-16T15:03:19.425Z,29.90
2022-08-16T15:05:49.337Z,29.80
2022-08-16T15:08:20.998Z,29.70
2022-08-16T15:11:03.301Z,29.80
2022-08-16T15:13:30.157Z,29.50
2022-08-16T15:16:02.318Z,29.20
2022-08-16T15:18:31.871Z,29.30
2022-08-16T15:21:01.801Z,29.20
2022-08-16T15:23:29.257Z,29.20
2022-08-16T15:26:02.583Z,29.10
2022-08-16T15:28:37.947Z,29.10
2022-08-16T15:31:08.268Z,28.90
2022-08-16T15:33:42.714Z,28.60
2022-08-16T15:36:17.471Z,28.70
2022-08-16T15:38:56.944Z,28.50
2022-08-16T15:41:38.777Z,28.40
2022-08-16T15:44:10.580Z,28.40
2022-08-16T15:46:54.768Z,28.40
2022-08-16T15:49:37.809Z,28.10
2022-08-16T15:52:20.429Z,28.00
2022-08-16T15:54:52.527Z,28.40
2022-08-16T15:57:24.736Z,28.50
2022-08-16T15:59:52.734Z,28.30
2022-08-16T16:02:31.309Z,28.30
2022-08-16T16:05:09.785Z,28.10
2022-08-16T16:07:40.689Z,28.20
2022-08-16T16:10:12.870Z,28.30
2022-08-16T16:12:51.403Z,28.30
2022-08-16T16:15:24.545Z,28.20
2022-08-16T16:17:53.070Z,28.30
2022-08-16T16:20:24.495Z,28.30
2022-08-16T16:23:00.190Z,28.30
2022-08-16T16:25:29.857Z,28.30
2022-08-16T16:27:59.934Z,28.20
2022-08-16T16:30:38.024Z,28.40
2022-08-16T16:33:20.847Z,28.10
2022-08-16T16:35:54.932Z,28.00
2022-08-16T16:38:24.594Z,27.90
2022-08-16T16:40:53.994Z,28.00
2022-08-16T16:43:25.888Z,27.90
2022-08-16T16:45:58.989Z,27.50
2022-08-16T16:48:34.353Z,27.50
2022-08-16T16:51:09.923Z,27.80
2022-08-16T16:53:41.809Z,27.50
2022-08-16T16:56:19.814Z,27.50
2022-08-16T16:58:56.664Z,27.70
2022-08-16T17:01:56.712Z,27.80
2022-08-16T17:04:27.394Z,27.80
2022-08-16T17:06:59.489Z,27.70
2022-08-16T17:09:26.270Z,27.70
2022-08-16T17:11:55.138Z,27.50
2022-08-16T17:14:33.312Z,27.50
2022-08-16T17:17:08.971Z,27.70
2022-08-16T17:19:40.852Z,27.60
2022-08-16T17:22:14.015Z,27.60
2022-08-16T17:24:45.355Z,27.50
2022-08-16T17:27:19.435Z,27.50
2022-08-16T17:30:14.654Z,27.40
2022-08-16T17:32:46.860Z,27.10
2022-08-16T17:35:19.143Z,27.00
2022-08-16T17:37:54.286Z,26.80
2022-08-16T17:40:40.268Z,26.80
2022-08-16T17:43:13.644Z,26.90
2022-08-16T17:45:41.831Z,27.10
2022-08-16T17:48:09.300Z,27.20
2022-08-16T17:50:37.530Z,27.10
2022-08-16T17:53:05.157Z,27.00
2022-08-16T17:55:35.820Z,27.00
2022-08-16T17:58:09.887Z,27.00
2022-08-16T18:00:49.567Z,26.90
2022-08-16T18:03:40.677Z,26.90
2022-08-16T18:06:13.678Z,26.80
2022-08-16T18:08:41.521Z,26.70
2022-08-16T18:11:12.078Z,26.60
2022-08-16T18:13:43.087Z,26.60
2022-08-16T18:16:11.560Z,26.60
2022-08-16T18:18:38.394Z,26.60
2022-08-16T18:21:23.807Z,26.60
2022-08-16T18:23:50.633Z,26.40
2022-08-16T18:26:17.577Z,26.60
2022-08-16T18:28:44.329Z,26.50
2022-08-16T18:31:11.161Z,26.50
2022-08-16T18:33:43.524Z,26.40
2022-08-16T18:36:19.915Z,26.40
2022-08-16T18:38:49.282Z,26.30
2022-08-16T18:41:16.430Z,26.30
2022-08-16T18:44:00.883Z,26.30
2022-08-16T18:46:30.047Z,26.10
2022-08-16T18:48:56.997Z,26.00
2022-08-16T18:51:25.463Z,26.00
2022-08-16T18:53:53.563Z,25.90
2022-08-16T18:56:20.593Z,26.00
2022-08-16T18:58:47.403Z,26.00
2022-08-16T19:01:14.503Z,25.90
2022-08-16T19:03:41.798Z,25.90
2022-08-16T19:06:13.888Z,25.90
2022-08-16T19:08:45.673Z,25.90
2022-08-16T19:11:19.978Z,26.00
2022-08-16T19:13:46.912Z,25.90
2022-08-16T19:16:15.234Z,25.80
2022-08-16T19:18:42.373Z,25.80
2022-08-16T19:21:14.601Z,25.70
2022-08-16T19:23:43.914Z,25.80
2022-08-16T19:26:24.734Z,25.70
2022-08-16T19:28:58.501Z,25.70
2022-08-16T19:31:35.297Z,25.80
2022-08-16T19:34:03.928Z,25.80
2022-08-16T19:36:36.086Z,25.90
2022-08-16T19:39:09.002Z,25.90
2022-08-16T19:41:38.703Z,25.90
2022-08-16T19:44:06.620Z,25.80
2022-08-16T19:46:34.632Z,25.70
2022-08-16T19:49:01.768Z,25.60
2022-08-16T19:51:28.918Z,25.40
2022-08-16T19:53:55.804Z,25.30
2022-08-16T19:56:25.662Z,25.20
2022-08-16T19:59:17.604Z,25.20
2022-08-16T20:01:42.529Z,25.20
2022-08-16T20:04:13.272Z,25.10
2022-08-16T20:06:41.511Z,25.10
2022-08-16T20:09:08.447Z,25.00
2022-08-16T20:11:37.455Z,25.00
2022-08-16T20:14:05.638Z,24.90
2022-08-16T20:16:32.754Z,24.80
2022-08-16T20:18:59.599Z,24.80
2022-08-16T20:21:26.345Z,24.60
2022-08-16T20:24:01.310Z,24.70
2022-08-16T20:26:37.094Z,24.60
2022-08-16T20:29:03.961Z,24.50
2022-08-16T20:31:30.926Z,24.50
2022-08-16T20:33:57.780Z,24.60
2022-08-16T20:36:24.894Z,24.50
2022-08-16T20:38:52.723Z,24.40
2022-08-16T20:41:19.595Z,24.40
2022-08-16T20:43:47.625Z,24.30
2022-08-16T20:46:15.441Z,24.20
2022-08-16T20:48:42.808Z,24.10
2022-08-16T20:51:12.799Z,24.00
2022-08-16T20:53:41.154Z,23.90
2022-08-16T20:56:11.263Z,23.90
2022-08-16T20:58:38.491Z,23.90
2022-08-16T21:01:08.424Z,23.80
2022-08-16T21:03:35.988Z,23.90
2022-08-16T21:06:03.146Z,23.90
2022-08-16T21:08:52.101Z,23.90
2022-08-16T21:11:18.028Z,23.90
2022-08-16T21:13:44.869Z,23.90
2022-08-16T21:16:11.745Z,23.90
2022-08-16T21:18:38.840Z,23.90
2022-08-16T21:21:05.731Z,23.80
2022-08-16T21:23:33.153Z,23.70
2022-08-16T21:26:00.078Z,23.80
2022-08-16T21:28:39.147Z,23.70
2022-08-16T21:31:09.755Z,23.80
2022-08-16T21:33:36.948Z,23.80
2022-08-16T21:36:04.304Z,23.80
2022-08-16T21:38:31.402Z,23.80
2022-08-16T21:40:59.854Z,23.80
2022-08-16T21:43:28.817Z,23.80
2022-08-16T21:45:56.071Z,23.90
2022-08-16T21:48:34.958Z,23.90
2022-08-16T21:51:08.446Z,24.00
2022-08-16T21:53:35.833Z,23.80
2022-08-16T21:56:04.192Z,23.70
2022-08-16T21:58:31.660Z,23.60
2022-08-16T22:00:59.156Z,23.60
2022-08-16T22:03:26.234Z,23.70
2022-08-16T22:06:12.281Z,23.60
2022-08-16T22:08:50.332Z,23.70
2022-08-16T22:11:19.672Z,23.70
2022-08-16T22:13:57.214Z,23.60
2022-08-16T22:16:31.541Z,23.60
2022-08-16T22:18:59.097Z,23.80
2022-08-16T22:21:26.487Z,23.90
2022-08-16T22:23:56.650Z,23.80
2022-08-16T22:26:38.451Z,23.90
2022-08-16T22:29:10.276Z,23.70
2022-08-16T22:31:39.471Z,23.80
2022-08-16T22:34:07.947Z,23.80
2022-08-16T22:36:35.319Z,23.60
2022-08-16T22:39:05.993Z,23.60
2022-08-16T22:41:34.292Z,23.60
2022-08-16T22:44:02.640Z,23.70
2022-08-16T22:46:30.468Z,23.60
2022-08-16T22:48:57.855Z,23.50
2022-08-16T22:51:27.483Z,23.50
2022-08-16T22:53:55.561Z,23.50
2022-08-16T22:56:23.827Z,23.30
2022-08-16T22:58:51.080Z,23.20
2022-08-16T23:01:20.875Z,23.20
2022-08-16T23:03:48.237Z,23.20
2022-08-16T23:06:15.717Z,23.20
2022-08-16T23:08:43.195Z,23.10
2022-08-16T23:11:13.187Z,23.10
2022-08-16T23:13:52.444Z,23.10
2022-08-16T23:16:32.490Z,23.10
2022-08-16T23:19:00.747Z,23.00
2022-08-16T23:21:27.928Z,23.00
2022-08-16T23:23:54.753Z,23.00
2022-08-16T23:26:46.979Z,23.10
2022-08-16T23:29:15.852Z,23.20
2022-08-16T23:31:49.293Z,23.30
2022-08-16T23:34:16.043Z,23.10
2022-08-16T23:36:42.896Z,23.10
2022-08-16T23:39:09.713Z,23.20
2022-08-16T23:41:36.528Z,23.10
2022-08-16T23:44:55.451Z,23.10
2022-08-16T23:46:50.227Z,23.10
2022-08-16T23:49:56.468Z,23.10
2022-08-16T23:52:08.062Z,23.10
2022-08-16T23:54:35.968Z,23.10
2022-08-16T23:57:04.761Z,22.90
2022-08-16T23:59:32.520Z,22.90
